METAR Data
IDs: Format: Raw Decoded Include TAF

Data at: 2307 UTC 25 Oct 2021

KCNW 252255Z 17004KT 10SM SKC 31/21 A2989
KCNW 252155Z 17003KT 10SM SKC 32/20 A2990
KCNW 252055Z 21004KT 10SM SKC 32/20 A2990
KCNW 251955Z 18004KT 10SM SKC 32/21 A2991
KCNW 251855Z 00000KT 7SM SKC 30/21 A2993
KCNW 251755Z 17005KT 7SM SKC 28/21 A2996
KCNW 251655Z 12004KT 7SM SKC 25/21 A2998
KCNW 251555Z 17004KT 4SM BKN004 23/20 A2999
KCNW 251455Z 00000KT 7SM SCT004 22/20 A2998
KCNW 251355Z 00000KT 10SM SKC 19/19 A2997
KCNW 251255Z 31005KT 10SM SKC 18/18 A2995
KCNW 251155Z 35004KT 10SM SKC 17/17 A2994
KCNW 250355Z 19004KT 10SM SKC 22/19 A2986
KCNW 250255Z 18005KT 10SM SKC 23/19 A2985
KCNW 250155Z 15005KT 10SM SKC 23/19 A2983
KCNW 250055Z 16004KT 10SM SKC 24/19 A2982
KCNW 242355Z 17007KT 10SM SKC 27/19 A2980
KCNW 242255Z 18011KT 10SM FEW040 29/19 A2980
KCNW 242155Z 18012G18KT 10SM SCT037 29/19 A2980
KCNW 242055Z 19012KT 10SM BKN037 28/19 A2981
KCNW 241955Z 18011G20KT 10SM BKN035 29/19 A2981
KCNW 241855Z 17012KT 10SM SCT024 28/20 A2982
KCNW 241755Z 18012G20KT 10SM BKN019 27/20 A2986
KCNW 241655Z 17010G14KT 7SM OVC013 24/20 A2988
KCNW 241555Z 17010KT 7SM BKN007 OVC012 23/20 A2989
KCNW 241455Z 16008KT 6SM BR OVC003 21/21 A2990
KCNW 241355Z 16008KT 5SM BR OVC003 20/20 A2989
KCNW 241255Z 17006KT 2SM BR OVC003 19/19 A2987
KCNW 241155Z 18008KT 2SM BR OVC003 19/19 A2985